sensor_id;sensor_type;location;lat;lon;timestamp;temperature;humidity
35668;DHT22;22158;59.280;17.806;2023-03-03T05:01:34;1.50;99.00
35668;DHT22;22158;59.280;17.806;2023-03-03T05:04:00;1.50;99.10
35668;DHT22;22158;59.280;17.806;2023-03-03T05:06:25;1.50;99.10
35668;DHT22;22158;59.280;17.806;2023-03-03T05:08:51;1.50;99.20
35668;DHT22;22158;59.280;17.806;2023-03-03T05:11:16;1.50;99.10
35668;DHT22;22158;59.280;17.806;2023-03-03T05:13:42;1.50;99.10
35668;DHT22;22158;59.280;17.806;2023-03-03T05:16:08;1.50;99.20
35668;DHT22;22158;59.280;17.806;2023-03-03T05:18:33;1.60;99.00
35668;DHT22;22158;59.280;17.806;2023-03-03T05:21:00;1.60;99.10
35668;DHT22;22158;59.280;17.806;2023-03-03T05:23:25;1.60;99.20
35668;DHT22;22158;59.280;17.806;2023-03-03T05:25:51;1.50;99.20
35668;DHT22;22158;59.280;17.806;2023-03-03T05:28:17;1.60;99.10
35668;DHT22;22158;59.280;17.806;2023-03-03T05:30:43;1.60;99.10
35668;DHT22;22158;59.280;17.806;2023-03-03T05:33:12;1.50;99.20
35668;DHT22;22158;59.280;17.806;2023-03-03T05:35:38;1.50;99.30
35668;DHT22;22158;59.280;17.806;2023-03-03T05:38:03;1.50;99.30
35668;DHT22;22158;59.280;17.806;2023-03-03T05:40:29;1.50;99.40
35668;DHT22;22158;59.280;17.806;2023-03-03T05:42:55;1.60;99.20
35668;DHT22;22158;59.280;17.806;2023-03-03T05:45:21;1.60;99.30
35668;DHT22;22158;59.280;17.806;2023-03-03T05:47:49;1.60;99.40
35668;DHT22;22158;59.280;17.806;2023-03-03T05:50:15;1.60;99.40
35668;DHT22;22158;59.280;17.806;2023-03-03T05:52:41;1.60;99.50
35668;DHT22;22158;59.280;17.806;2023-03-03T05:55:07;1.60;99.30
35668;DHT22;22158;59.280;17.806;2023-03-03T05:57:33;1.60;99.30
35668;DHT22;22158;59.280;17.806;2023-03-03T06:00:00;1.60;99.20
35668;DHT22;22158;59.280;17.806;2023-03-03T06:02:26;1.60;99.20
35668;DHT22;22158;59.280;17.806;2023-03-03T06:04:52;1.60;99.50
35668;DHT22;22158;59.280;17.806;2023-03-03T06:07:17;1.70;99.30
35668;DHT22;22158;59.280;17.806;2023-03-03T06:09:43;1.60;99.50
35668;DHT22;22158;59.280;17.806;2023-03-03T06:12:08;1.60;99.50
35668;DHT22;22158;59.280;17.806;2023-03-03T06:14:34;1.60;99.50
35668;DHT22;22158;59.280;17.806;2023-03-03T06:16:59;1.60;99.50
35668;DHT22;22158;59.280;17.806;2023-03-03T06:19:25;1.60;99.40
35668;DHT22;22158;59.280;17.806;2023-03-03T06:21:51;1.60;99.40
35668;DHT22;22158;59.280;17.806;2023-03-03T06:24:16;1.60;99.60
35668;DHT22;22158;59.280;17.806;2023-03-03T06:26:42;1.60;99.40
35668;DHT22;22158;59.280;17.806;2023-03-03T06:29:08;1.60;99.40
35668;DHT22;22158;59.280;17.806;2023-03-03T06:31:33;1.60;99.70
35668;DHT22;22158;59.280;17.806;2023-03-03T06:34:00;1.60;99.60
35668;DHT22;22158;59.280;17.806;2023-03-03T06:36:25;1.60;99.70
35668;DHT22;22158;59.280;17.806;2023-03-03T06:38:51;1.60;99.50
35668;DHT22;22158;59.280;17.806;2023-03-03T06:41:17;1.70;99.40
35668;DHT22;22158;59.280;17.806;2023-03-03T06:43:42;1.70;99.70
35668;DHT22;22158;59.280;17.806;2023-03-03T06:46:08;1.70;99.50
35668;DHT22;22158;59.280;17.806;2023-03-03T06:48:33;1.80;99.50
35668;DHT22;22158;59.280;17.806;2023-03-03T06:51:01;1.80;99.50
35668;DHT22;22158;59.280;17.806;2023-03-03T06:53:27;1.80;99.40
35668;DHT22;22158;59.280;17.806;2023-03-03T06:55:57;1.80;99.60
35668;DHT22;22158;59.280;17.806;2023-03-03T06:58:24;1.90;99.30
35668;DHT22;22158;59.280;17.806;2023-03-03T07:00:55;1.90;99.50
35668;DHT22;22158;59.280;17.806;2023-03-03T07:03:26;2.00;99.30
35668;DHT22;22158;59.280;17.806;2023-03-03T07:05:55;2.00;99.20
35668;DHT22;22158;59.280;17.806;2023-03-03T07:08:22;2.00;99.50
35668;DHT22;22158;59.280;17.806;2023-03-03T07:10:49;2.00;99.50
35668;DHT22;22158;59.280;17.806;2023-03-03T07:15:42;2.20;99.20
35668;DHT22;22158;59.280;17.806;2023-03-03T07:18:21;2.30;98.80
35668;DHT22;22158;59.280;17.806;2023-03-03T07:20:49;2.30;98.70
35668;DHT22;22158;59.280;17.806;2023-03-03T07:23:23;2.40;98.60
35668;DHT22;22158;59.280;17.806;2023-03-03T07:25:50;2.40;98.80
35668;DHT22;22158;59.280;17.806;2023-03-03T07:28:24;2.50;98.50
35668;DHT22;22158;59.280;17.806;2023-03-03T07:30:51;2.60;98.70
35668;DHT22;22158;59.280;17.806;2023-03-03T07:33:44;2.60;98.40
35668;DHT22;22158;59.280;17.806;2023-03-03T07:36:26;2.70;98.80
35668;DHT22;22158;59.280;17.806;2023-03-03T07:38:54;2.80;98.30
35668;DHT22;22158;59.280;17.806;2023-03-03T07:41:20;2.90;98.60
35668;DHT22;22158;59.280;17.806;2023-03-03T07:43:50;2.90;98.40
35668;DHT22;22158;59.280;17.806;2023-03-03T07:46:42;3.00;98.00
35668;DHT22;22158;59.280;17.806;2023-03-03T07:49:32;3.10;98.30
35668;DHT22;22158;59.280;17.806;2023-03-03T07:52:00;3.20;97.70
35668;DHT22;22158;59.280;17.806;2023-03-03T07:54:30;3.30;97.70
35668;DHT22;22158;59.280;17.806;2023-03-03T07:59:49;3.40;97.70
35668;DHT22;22158;59.280;17.806;2023-03-03T08:02:30;3.40;97.50
35668;DHT22;22158;59.280;17.806;2023-03-03T08:04:58;3.50;97.60
35668;DHT22;22158;59.280;17.806;2023-03-03T08:07:23;3.50;97.20
35668;DHT22;22158;59.280;17.806;2023-03-03T08:09:59;3.50;97.40
35668;DHT22;22158;59.280;17.806;2023-03-03T08:12:39;3.60;97.40
35668;DHT22;22158;59.280;17.806;2023-03-03T08:15:11;3.60;97.60
35668;DHT22;22158;59.280;17.806;2023-03-03T08:17:41;3.60;97.60
35668;DHT22;22158;59.280;17.806;2023-03-03T08:20:34;3.60;97.50
35668;DHT22;22158;59.280;17.806;2023-03-03T08:23:02;3.60;96.90
35668;DHT22;22158;59.280;17.806;2023-03-03T08:25:28;3.60;97.00
35668;DHT22;22158;59.280;17.806;2023-03-03T08:27:53;3.70;96.70
35668;DHT22;22158;59.280;17.806;2023-03-03T08:30:19;3.70;97.00
35668;DHT22;22158;59.280;17.806;2023-03-03T08:32:45;3.80;96.80
35668;DHT22;22158;59.280;17.806;2023-03-03T08:35:10;3.80;96.90
35668;DHT22;22158;59.280;17.806;2023-03-03T08:37:36;3.80;96.70
35668;DHT22;22158;59.280;17.806;2023-03-03T08:40:02;3.90;96.90
35668;DHT22;22158;59.280;17.806;2023-03-03T08:42:27;4.00;96.90
35668;DHT22;22158;59.280;17.806;2023-03-03T08:44:54;4.00;96.40
35668;DHT22;22158;59.280;17.806;2023-03-03T08:47:20;4.00;96.20
35668;DHT22;22158;59.280;17.806;2023-03-03T08:49:46;4.00;96.50
35668;DHT22;22158;59.280;17.806;2023-03-03T08:52:11;4.10;95.90
35668;DHT22;22158;59.280;17.806;2023-03-03T08:54:37;4.10;96.10
35668;DHT22;22158;59.280;17.806;2023-03-03T08:57:02;4.20;96.00
35668;DHT22;22158;59.280;17.806;2023-03-03T08:59:28;4.30;96.40
35668;DHT22;22158;59.280;17.806;2023-03-03T09:01:54;4.40;95.80
35668;DHT22;22158;59.280;17.806;2023-03-03T09:04:19;4.40;95.70
35668;DHT22;22158;59.280;17.806;2023-03-03T09:06:45;4.40;96.10
35668;DHT22;22158;59.280;17.806;2023-03-03T09:09:10;4.40;96.10
35668;DHT22;22158;59.280;17.806;2023-03-03T09:11:36;4.40;96.00
35668;DHT22;22158;59.280;17.806;2023-03-03T09:14:10;4.40;95.90
35668;DHT22;22158;59.280;17.806;2023-03-03T09:16:44;4.30;95.70
35668;DHT22;22158;59.280;17.806;2023-03-03T09:19:32;4.30;96.20
35668;DHT22;22158;59.280;17.806;2023-03-03T09:22:14;4.30;96.50
35668;DHT22;22158;59.280;17.806;2023-03-03T09:24:42;4.30;96.60
35668;DHT22;22158;59.280;17.806;2023-03-03T09:27:28;4.30;96.60
35668;DHT22;22158;59.280;17.806;2023-03-03T09:30:02;4.40;96.70
35668;DHT22;22158;59.280;17.806;2023-03-03T09:32:37;4.50;96.10
35668;DHT22;22158;59.280;17.806;2023-03-03T09:37:52;4.60;95.60
35668;DHT22;22158;59.280;17.806;2023-03-03T09:40:53;4.70;95.60
35668;DHT22;22158;59.280;17.806;2023-03-03T09:43:29;4.80;95.70
35668;DHT22;22158;59.280;17.806;2023-03-03T09:49:00;4.90;94.80
35668;DHT22;22158;59.280;17.806;2023-03-03T09:54:31;5.10;95.30
35668;DHT22;22158;59.280;17.806;2023-03-03T09:57:13;5.30;95.10
35668;DHT22;22158;59.280;17.806;2023-03-03T10:04:54;5.40;94.50
35668;DHT22;22158;59.280;17.806;2023-03-03T10:24:53;4.90;96.50
35668;DHT22;22158;59.280;17.806;2023-03-03T10:27:37;4.80;96.80
35668;DHT22;22158;59.280;17.806;2023-03-03T11:00:26;2.80;99.90
35668;DHT22;22158;59.280;17.806;2023-03-03T11:05:34;2.90;99.90
35668;DHT22;22158;59.280;17.806;2023-03-03T11:13:46;2.90;99.90
35668;DHT22;22158;59.280;17.806;2023-03-03T11:21:45;2.70;99.90
35668;DHT22;22158;59.280;17.806;2023-03-03T11:35:01;2.70;99.90
35668;DHT22;22158;59.280;17.806;2023-03-03T11:37:34;2.80;99.90
35668;DHT22;22158;59.280;17.806;2023-03-03T11:40:13;2.80;99.90
35668;DHT22;22158;59.280;17.806;2023-03-03T11:43:05;2.90;99.90
35668;DHT22;22158;59.280;17.806;2023-03-03T11:45:43;3.00;99.90
35668;DHT22;22158;59.280;17.806;2023-03-03T11:50:50;3.00;99.90
35668;DHT22;22158;59.280;17.806;2023-03-03T11:53:43;3.10;99.90
35668;DHT22;22158;59.280;17.806;2023-03-03T11:56:27;3.00;99.90
35668;DHT22;22158;59.280;17.806;2023-03-03T12:04:15;3.20;99.90
35668;DHT22;22158;59.280;17.806;2023-03-03T12:07:10;3.20;99.90
35668;DHT22;22158;59.280;17.806;2023-03-03T12:10:02;3.30;99.90
35668;DHT22;22158;59.280;17.806;2023-03-03T12:18:07;3.50;99.90
35668;DHT22;22158;59.280;17.806;2023-03-03T12:26:30;3.60;99.90
35668;DHT22;22158;59.280;17.806;2023-03-03T12:34:45;3.60;99.90
35668;DHT22;22158;59.280;17.806;2023-03-03T12:45:37;3.80;99.90
35668;DHT22;22158;59.280;17.806;2023-03-03T12:48:09;3.80;99.90
35668;DHT22;22158;59.280;17.806;2023-03-03T12:56:13;3.90;99.90
35668;DHT22;22158;59.280;17.806;2023-03-03T12:59:04;4.00;99.90
35668;DHT22;22158;59.280;17.806;2023-03-03T13:07:09;4.30;99.90
35668;DHT22;22158;59.280;17.806;2023-03-03T13:12:44;4.50;99.90
35668;DHT22;22158;59.280;17.806;2023-03-03T13:18:14;4.50;99.90
35668;DHT22;22158;59.280;17.806;2023-03-03T13:26:19;4.60;99.90
35668;DHT22;22158;59.280;17.806;2023-03-03T13:31:40;4.60;99.90
35668;DHT22;22158;59.280;17.806;2023-03-03T13:34:19;4.60;99.70
35668;DHT22;22158;59.280;17.806;2023-03-03T13:37:00;4.60;99.30
35668;DHT22;22158;59.280;17.806;2023-03-03T13:39:37;4.60;99.20
35668;DHT22;22158;59.280;17.806;2023-03-03T13:44:50;4.60;98.20
35668;DHT22;22158;59.280;17.806;2023-03-03T13:47:39;4.60;98.50
35668;DHT22;22158;59.280;17.806;2023-03-03T13:50:26;4.60;98.50
35668;DHT22;22158;59.280;17.806;2023-03-03T13:53:28;4.60;97.20
35668;DHT22;22158;59.280;17.806;2023-03-03T14:01:46;4.70;97.20
35668;DHT22;22158;59.280;17.806;2023-03-03T14:07:49;4.80;96.90
35668;DHT22;22158;59.280;17.806;2023-03-03T14:10:24;5.10;96.30
35668;DHT22;22158;59.280;17.806;2023-03-03T14:13:05;5.40;95.40
35668;DHT22;22158;59.280;17.806;2023-03-03T14:18:32;5.90;93.90
35668;DHT22;22158;59.280;17.806;2023-03-03T14:26:53;6.40;92.90
35668;DHT22;22158;59.280;17.806;2023-03-03T14:31:51;6.80;91.40
35668;DHT22;22158;59.280;17.806;2023-03-03T14:34:25;7.00;91.60
35668;DHT22;22158;59.280;17.806;2023-03-03T14:37:00;7.30;92.00
35668;DHT22;22158;59.280;17.806;2023-03-03T14:39:38;7.80;90.80
35668;DHT22;22158;59.280;17.806;2023-03-03T14:42:14;8.10;87.90
35668;DHT22;22158;59.280;17.806;2023-03-03T14:44:54;8.00;86.00
35668;DHT22;22158;59.280;17.806;2023-03-03T14:47:24;7.80;85.80
35668;DHT22;22158;59.280;17.806;2023-03-03T14:49:51;8.10;87.70
35668;DHT22;22158;59.280;17.806;2023-03-03T14:52:32;8.30;84.80
35668;DHT22;22158;59.280;17.806;2023-03-03T14:54:59;7.80;85.00
35668;DHT22;22158;59.280;17.806;2023-03-03T15:00:26;6.90;88.50
35668;DHT22;22158;59.280;17.806;2023-03-03T15:05:28;6.40;90.20
35668;DHT22;22158;59.280;17.806;2023-03-03T15:12:56;6.10;90.40
35668;DHT22;22158;59.280;17.806;2023-03-03T15:15:24;6.10;90.50
35668;DHT22;22158;59.280;17.806;2023-03-03T15:20:34;6.00;90.80
35668;DHT22;22158;59.280;17.806;2023-03-03T15:26:29;5.60;91.40
35668;DHT22;22158;59.280;17.806;2023-03-03T15:31:59;5.30;91.80
35668;DHT22;22158;59.280;17.806;2023-03-03T15:34:56;5.30;91.00
35668;DHT22;22158;59.280;17.806;2023-03-03T15:37:45;5.20;91.40
35668;DHT22;22158;59.280;17.806;2023-03-03T15:40:29;5.10;91.50
35668;DHT22;22158;59.280;17.806;2023-03-03T15:43:19;5.00;92.20
35668;DHT22;22158;59.280;17.806;2023-03-03T15:45:57;4.90;92.30
35668;DHT22;22158;59.280;17.806;2023-03-03T16:04:17;4.80;93.00
35668;DHT22;22158;59.280;17.806;2023-03-03T16:12:35;4.80;93.60
35668;DHT22;22158;59.280;17.806;2023-03-03T16:23:14;4.70;93.60
35668;DHT22;22158;59.280;17.806;2023-03-03T16:28:25;4.70;93.70
35668;DHT22;22158;59.280;17.806;2023-03-03T16:30:59;4.80;93.10
35668;DHT22;22158;59.280;17.806;2023-03-03T16:33:38;4.80;93.20
35668;DHT22;22158;59.280;17.806;2023-03-03T16:36:25;4.80;92.80
35668;DHT22;22158;59.280;17.806;2023-03-03T16:47:25;4.70;93.30
35668;DHT22;22158;59.280;17.806;2023-03-03T16:52:54;4.70;93.70
35668;DHT22;22158;59.280;17.806;2023-03-03T16:55:37;4.70;93.90
35668;DHT22;22158;59.280;17.806;2023-03-03T16:58:24;4.60;95.30
35668;DHT22;22158;59.280;17.806;2023-03-03T17:00:55;4.60;95.00
35668;DHT22;22158;59.280;17.806;2023-03-03T17:03:39;4.60;95.50
35668;DHT22;22158;59.280;17.806;2023-03-03T17:23:02;4.90;94.30
35668;DHT22;22158;59.280;17.806;2023-03-03T17:25:22;4.90;94.60
35668;DHT22;22158;59.280;17.806;2023-03-03T17:33:43;4.70;95.30
35668;DHT22;22158;59.280;17.806;2023-03-03T17:39:23;4.50;96.10
35668;DHT22;22158;59.280;17.806;2023-03-03T17:47:29;4.30;96.50
35668;DHT22;22158;59.280;17.806;2023-03-03T17:53:10;4.20;96.80
35668;DHT22;22158;59.280;17.806;2023-03-03T17:55:51;4.20;97.20
35668;DHT22;22158;59.280;17.806;2023-03-03T18:01:21;4.20;97.00
35668;DHT22;22158;59.280;17.806;2023-03-03T18:12:18;4.20;97.00
35668;DHT22;22158;59.280;17.806;2023-03-03T18:21:08;4.10;97.00
35668;DHT22;22158;59.280;17.806;2023-03-03T18:26:32;4.10;97.20
35668;DHT22;22158;59.280;17.806;2023-03-03T18:29:10;4.10;96.30
35668;DHT22;22158;59.280;17.806;2023-03-03T18:39:41;4.10;95.70
35668;DHT22;22158;59.280;17.806;2023-03-03T18:48:08;4.10;96.60
35668;DHT22;22158;59.280;17.806;2023-03-03T18:53:26;4.10;94.90
35668;DHT22;22158;59.280;17.806;2023-03-03T18:56:03;4.30;93.40
35668;DHT22;22158;59.280;17.806;2023-03-03T18:58:41;4.30;92.50
35668;DHT22;22158;59.280;17.806;2023-03-03T19:06:31;4.50;88.50
35668;DHT22;22158;59.280;17.806;2023-03-03T19:10:09;4.50;86.80
35668;DHT22;22158;59.280;17.806;2023-03-03T19:12:09;4.40;89.00
35668;DHT22;22158;59.280;17.806;2023-03-03T19:14:39;4.40;86.30
35668;DHT22;22158;59.280;17.806;2023-03-03T19:20:00;4.30;86.10
35668;DHT22;22158;59.280;17.806;2023-03-03T19:22:28;4.20;86.00
35668;DHT22;22158;59.280;17.806;2023-03-03T19:30:24;4.10;84.50
35668;DHT22;22158;59.280;17.806;2023-03-03T19:33:02;4.10;83.00
35668;DHT22;22158;59.280;17.806;2023-03-03T19:35:44;4.10;84.10
35668;DHT22;22158;59.280;17.806;2023-03-03T19:47:02;3.90;83.60
35668;DHT22;22158;59.280;17.806;2023-03-03T19:52:27;3.80;83.00
35668;DHT22;22158;59.280;17.806;2023-03-03T20:05:18;3.40;84.10
35668;DHT22;22158;59.280;17.806;2023-03-03T20:19:01;3.30;84.40
35668;DHT22;22158;59.280;17.806;2023-03-03T20:24:33;3.20;84.30
35668;DHT22;22158;59.280;17.806;2023-03-03T20:30:07;3.20;83.70
35668;DHT22;22158;59.280;17.806;2023-03-03T20:39:08;3.10;83.70
35668;DHT22;22158;59.280;17.806;2023-03-03T20:41:55;3.00;85.40
35668;DHT22;22158;59.280;17.806;2023-03-03T20:58:32;2.80;81.80
35668;DHT22;22158;59.280;17.806;2023-03-03T21:01:13;2.80;83.10
35668;DHT22;22158;59.280;17.806;2023-03-03T21:03:42;2.70;83.60
35668;DHT22;22158;59.280;17.806;2023-03-03T21:06:11;2.70;83.70
35668;DHT22;22158;59.280;17.806;2023-03-03T21:08:52;2.60;86.00
35668;DHT22;22158;59.280;17.806;2023-03-03T21:13:55;2.50;87.60
35668;DHT22;22158;59.280;17.806;2023-03-03T21:19:03;2.40;88.80
35668;DHT22;22158;59.280;17.806;2023-03-03T21:21:34;2.40;90.00
35668;DHT22;22158;59.280;17.806;2023-03-03T21:24:00;2.40;89.50
35668;DHT22;22158;59.280;17.806;2023-03-03T21:29:25;2.30;88.40
35668;DHT22;22158;59.280;17.806;2023-03-03T21:31:53;2.30;88.30
35668;DHT22;22158;59.280;17.806;2023-03-03T21:36:57;2.20;89.40
35668;DHT22;22158;59.280;17.806;2023-03-03T21:39:27;2.10;89.10
35668;DHT22;22158;59.280;17.806;2023-03-03T21:42:05;2.10;89.60
35668;DHT22;22158;59.280;17.806;2023-03-03T21:44:51;2.10;88.90
35668;DHT22;22158;59.280;17.806;2023-03-03T21:47:21;2.10;88.90
35668;DHT22;22158;59.280;17.806;2023-03-03T21:49:49;2.10;87.60
35668;DHT22;22158;59.280;17.806;2023-03-03T21:52:17;2.00;87.90
35668;DHT22;22158;59.280;17.806;2023-03-03T21:54:47;2.00;87.50
35668;DHT22;22158;59.280;17.806;2023-03-03T21:57:13;2.00;87.30
35668;DHT22;22158;59.280;17.806;2023-03-03T21:59:39;2.00;85.60
35668;DHT22;22158;59.280;17.806;2023-03-03T22:02:06;2.00;86.30
35668;DHT22;22158;59.280;17.806;2023-03-03T22:04:32;2.00;86.30
35668;DHT22;22158;59.280;17.806;2023-03-03T22:06:58;2.00;85.50
35668;DHT22;22158;59.280;17.806;2023-03-03T22:09:24;1.90;86.00
35668;DHT22;22158;59.280;17.806;2023-03-03T22:11:49;1.90;85.90
35668;DHT22;22158;59.280;17.806;2023-03-03T22:14:15;1.80;85.80
35668;DHT22;22158;59.280;17.806;2023-03-03T22:16:41;1.90;84.70
35668;DHT22;22158;59.280;17.806;2023-03-03T22:19:07;1.90;84.70
35668;DHT22;22158;59.280;17.806;2023-03-03T22:21:37;1.80;84.60
35668;DHT22;22158;59.280;17.806;2023-03-03T22:24:03;1.80;83.90
35668;DHT22;22158;59.280;17.806;2023-03-03T22:26:29;1.80;83.80
35668;DHT22;22158;59.280;17.806;2023-03-03T22:28:55;1.80;83.70
35668;DHT22;22158;59.280;17.806;2023-03-03T22:31:20;1.80;84.30
35668;DHT22;22158;59.280;17.806;2023-03-03T22:33:47;1.80;85.30
35668;DHT22;22158;59.280;17.806;2023-03-03T22:36:13;1.80;85.60
35668;DHT22;22158;59.280;17.806;2023-03-03T22:38:38;1.70;85.00
35668;DHT22;22158;59.280;17.806;2023-03-03T22:41:05;1.70;86.00
35668;DHT22;22158;59.280;17.806;2023-03-03T22:43:31;1.70;85.90
35668;DHT22;22158;59.280;17.806;2023-03-03T22:45:57;1.60;85.10
35668;DHT22;22158;59.280;17.806;2023-03-03T22:48:23;1.60;86.20
35668;DHT22;22158;59.280;17.806;2023-03-03T22:50:50;1.50;86.00
35668;DHT22;22158;59.280;17.806;2023-03-03T22:53:16;1.50;85.90
35668;DHT22;22158;59.280;17.806;2023-03-03T22:55:41;1.50;86.70
35668;DHT22;22158;59.280;17.806;2023-03-03T22:58:07;1.40;88.00
